createdAt,value
2019-05-21T00:00:01.917Z,12.97
2019-05-21T00:02:38.529Z,13.53
2019-05-21T00:05:14.829Z,12.50
2019-05-21T00:07:51.173Z,13.30
2019-05-21T00:10:27.367Z,12.77
2019-05-21T00:13:03.591Z,14.17
2019-05-21T00:15:39.928Z,13.23
2019-05-21T00:18:16.319Z,8.93
2019-05-21T00:20:52.784Z,8.97
2019-05-21T00:23:28.993Z,7.77
2019-05-21T00:26:05.339Z,6.17
2019-05-21T00:28:40.495Z,6.87
2019-05-21T00:31:53.170Z,6.27
2019-05-21T00:35:06.400Z,6.63
2019-05-21T00:38:18.981Z,5.97
2019-05-21T00:41:31.764Z,6.40
2019-05-21T00:44:08.234Z,7.17
2019-05-21T00:46:44.489Z,7.30
2019-05-21T00:49:20.708Z,8.00
2019-05-21T00:52:07.135Z,8.30
2019-05-21T00:54:34.820Z,8.57
2019-05-21T00:57:11.639Z,9.37
2019-05-21T00:59:48.199Z,12.70
2019-05-21T01:02:24.535Z,15.50
2019-05-21T01:05:01.676Z,25.47
2019-05-21T01:07:38.302Z,25.53
2019-05-21T01:10:14.620Z,15.30
2019-05-21T01:12:50.823Z,19.53
2019-05-21T01:15:27.153Z,25.30
2019-05-21T01:18:03.448Z,21.67
2019-05-21T01:20:39.696Z,44.23
2019-05-21T01:23:16.068Z,44.60
2019-05-21T01:25:52.290Z,30.53
2019-05-21T01:28:28.584Z,11.63
2019-05-21T01:31:04.852Z,7.67
2019-05-21T01:33:41.169Z,6.03
2019-05-21T01:36:17.415Z,4.13
2019-05-21T01:38:53.672Z,3.07
2019-05-21T01:41:29.896Z,3.03
2019-05-21T01:44:06.208Z,2.40
2019-05-21T01:46:42.472Z,1.57
2019-05-21T01:49:18.748Z,1.70
2019-05-21T01:51:55.027Z,4.20
2019-05-21T01:54:31.852Z,2.60
2019-05-21T01:57:08.058Z,2.43
2019-05-21T01:59:44.290Z,1.83
2019-05-21T02:02:20.554Z,2.17
2019-05-21T02:04:56.895Z,1.60
2019-05-21T02:07:33.232Z,1.73
2019-05-21T02:10:09.499Z,1.73
2019-05-21T02:12:45.819Z,1.40
2019-05-21T02:15:22.059Z,1.90
2019-05-21T02:17:58.280Z,1.70
2019-05-21T02:20:34.472Z,1.23
2019-05-21T02:23:13.682Z,1.60
2019-05-21T02:25:52.994Z,2.03
2019-05-21T02:28:29.219Z,2.03
2019-05-21T02:31:05.466Z,2.90
2019-05-21T02:33:41.794Z,4.73
2019-05-21T02:36:18.021Z,5.67
2019-05-21T02:38:54.272Z,6.10
2019-05-21T02:41:30.609Z,6.60
2019-05-21T02:44:06.814Z,6.07
2019-05-21T02:46:43.061Z,3.20
2019-05-21T02:49:19.291Z,3.17
2019-05-21T02:51:55.630Z,3.10
2019-05-21T02:54:40.834Z,3.27
2019-05-21T02:57:09.889Z,3.77
2019-05-21T02:59:47.746Z,3.83
2019-05-21T03:02:29.167Z,4.33
2019-05-21T03:05:07.582Z,3.40
2019-05-21T03:07:43.845Z,3.50
2019-05-21T03:10:20.134Z,2.47
2019-05-21T03:12:56.350Z,2.30
2019-05-21T03:15:32.604Z,2.17
2019-05-21T03:18:08.745Z,1.50
2019-05-21T03:20:44.997Z,1.30
2019-05-21T03:23:21.140Z,2.53
2019-05-21T03:25:57.685Z,1.80
2019-05-21T03:28:33.993Z,1.50
2019-05-21T03:31:10.263Z,1.90
2019-05-21T03:33:48.622Z,3.90
2019-05-21T03:36:33.121Z,14.73
2019-05-21T03:39:02.852Z,18.87
2019-05-21T03:41:39.077Z,15.77
2019-05-21T03:44:15.333Z,20.23
2019-05-21T03:46:51.575Z,18.07
2019-05-21T03:49:27.862Z,19.33
2019-05-21T03:52:04.092Z,20.10
2019-05-21T03:54:40.395Z,20.93
2019-05-21T03:57:16.697Z,22.90
2019-05-21T03:59:52.956Z,12.43
2019-05-21T04:02:29.213Z,6.13
2019-05-21T04:05:06.365Z,4.90
2019-05-21T04:07:42.708Z,3.80
2019-05-21T04:10:20.087Z,3.40
2019-05-21T04:13:09.113Z,3.13
2019-05-21T04:15:47.255Z,3.73
2019-05-21T04:18:25.181Z,4.23
2019-05-21T04:21:01.343Z,4.47
2019-05-21T04:23:37.602Z,3.60
2019-05-21T04:26:13.920Z,3.60
2019-05-21T04:28:50.143Z,3.67
2019-05-21T04:31:28.081Z,3.27
2019-05-21T04:34:04.272Z,3.70
2019-05-21T04:36:40.532Z,3.90
2019-05-21T04:39:16.786Z,4.47
2019-05-21T04:41:53.074Z,4.63
2019-05-21T04:44:29.326Z,4.87
2019-05-21T04:47:05.546Z,5.10
2019-05-21T04:49:41.828Z,7.37
2019-05-21T04:52:18.065Z,6.77
2019-05-21T04:54:54.317Z,6.47
2019-05-21T04:57:30.594Z,7.00
2019-05-21T05:00:07.298Z,5.43
2019-05-21T05:02:43.534Z,7.37
2019-05-21T05:05:19.777Z,8.20
2019-05-21T05:07:56.074Z,10.23
2019-05-21T05:10:32.473Z,10.50
2019-05-21T05:13:08.785Z,9.00
2019-05-21T05:15:45.037Z,11.40
2019-05-21T05:18:21.269Z,10.87
2019-05-21T05:20:57.448Z,10.30
2019-05-21T05:23:33.737Z,11.63
2019-05-21T05:26:10.090Z,12.50
2019-05-21T05:28:46.329Z,12.30
2019-05-21T05:31:22.557Z,13.13
2019-05-21T05:33:58.837Z,10.60
2019-05-21T05:36:34.951Z,10.97
2019-05-21T05:39:11.160Z,8.33
2019-05-21T05:41:56.641Z,8.10
2019-05-21T05:44:32.862Z,7.00
2019-05-21T05:47:09.250Z,6.43
2019-05-21T05:49:49.860Z,5.80
2019-05-21T05:52:26.252Z,5.57
2019-05-21T05:55:02.735Z,6.10
2019-05-21T05:57:39.280Z,7.33
2019-05-21T06:00:17.209Z,7.60
2019-05-21T06:02:53.539Z,9.40
2019-05-21T06:05:29.818Z,9.60
2019-05-21T06:08:06.201Z,10.27
2019-05-21T06:10:42.511Z,6.63
2019-05-21T06:13:18.974Z,9.83
2019-05-21T06:15:55.309Z,11.33
2019-05-21T06:18:35.377Z,13.27
2019-05-21T06:21:09.808Z,12.50
2019-05-21T06:23:46.002Z,11.57
2019-05-21T06:26:22.643Z,11.23
2019-05-21T06:28:58.866Z,11.30
2019-05-21T06:31:35.189Z,11.37
2019-05-21T06:34:11.507Z,13.13
2019-05-21T06:36:47.816Z,12.03
2019-05-21T06:39:24.198Z,11.97
2019-05-21T06:42:00.454Z,11.80
2019-05-21T06:44:36.672Z,14.07
2019-05-21T06:47:13.036Z,12.83
2019-05-21T06:49:49.302Z,14.20
2019-05-21T06:52:25.612Z,16.33
2019-05-21T06:55:01.777Z,13.63
2019-05-21T06:57:38.154Z,16.03
2019-05-21T07:00:15.413Z,19.30
2019-05-21T07:02:51.689Z,12.03
2019-05-21T07:05:27.961Z,13.80
2019-05-21T07:08:04.287Z,9.83
2019-05-21T07:10:40.602Z,12.10
2019-05-21T07:13:17.121Z,14.67
2019-05-21T07:15:53.438Z,15.70
2019-05-21T07:18:29.665Z,19.37
2019-05-21T07:21:05.962Z,24.70
2019-05-21T07:23:42.216Z,19.30
2019-05-21T07:26:18.829Z,14.43
2019-05-21T07:28:56.471Z,11.83
2019-05-21T07:31:33.278Z,9.70
2019-05-21T07:34:09.743Z,10.17
2019-05-21T07:36:45.966Z,9.07
2019-05-21T07:39:22.314Z,7.37
2019-05-21T07:41:58.706Z,7.37
2019-05-21T07:44:35.112Z,5.90
2019-05-21T07:47:11.540Z,5.50
2019-05-21T07:49:47.799Z,5.20
2019-05-21T07:52:25.843Z,5.77
2019-05-21T07:55:02.500Z,6.33
2019-05-21T07:57:39.052Z,6.27
2019-05-21T08:00:16.215Z,5.90
2019-05-21T08:02:52.584Z,6.83
2019-05-21T08:05:28.965Z,10.40
2019-05-21T08:08:05.538Z,6.40
2019-05-21T08:10:41.757Z,5.80
2019-05-21T08:13:18.889Z,6.83
2019-05-21T08:15:55.172Z,6.67
2019-05-21T08:18:31.481Z,6.80
2019-05-21T08:21:07.668Z,8.17
2019-05-21T08:23:44.005Z,8.23
2019-05-21T08:26:20.371Z,8.30
2019-05-21T08:28:56.663Z,7.33
2019-05-21T08:31:33.060Z,7.80
2019-05-21T08:34:09.276Z,9.93
2019-05-21T08:36:45.600Z,12.57
2019-05-21T08:39:28.917Z,11.33
2019-05-21T08:41:59.974Z,16.77
2019-05-21T08:44:36.251Z,14.30
2019-05-21T08:47:12.542Z,12.30
2019-05-21T08:49:48.919Z,13.87
2019-05-21T08:52:25.151Z,13.87
2019-05-21T08:55:01.476Z,16.20
2019-05-21T08:57:37.830Z,18.63
2019-05-21T09:00:16.532Z,23.77
2019-05-21T09:02:52.930Z,20.53
2019-05-21T09:05:29.243Z,21.53
2019-05-21T09:08:05.754Z,21.83
2019-05-21T09:10:42.845Z,23.73
2019-05-21T09:13:19.184Z,27.77
2019-05-21T09:15:55.583Z,23.27
2019-05-21T09:18:31.854Z,23.27
2019-05-21T09:21:20.107Z,23.93
2019-05-21T09:24:01.775Z,27.73
2019-05-21T09:26:40.186Z,26.27
2019-05-21T09:29:19.710Z,24.27
2019-05-21T09:31:59.937Z,26.13
2019-05-21T09:34:48.807Z,29.50
2019-05-21T09:37:20.040Z,33.13
2019-05-21T09:39:56.438Z,40.57
2019-05-21T09:42:40.372Z,46.13
2019-05-21T09:45:20.295Z,51.73
2019-05-21T09:48:05.721Z,47.30
2019-05-21T09:50:42.001Z,43.17
2019-05-21T09:53:22.353Z,49.40
2019-05-21T09:56:00.374Z,25.70
2019-05-21T09:58:40.896Z,22.90
2019-05-21T10:01:18.801Z,21.00
2019-05-21T10:03:56.824Z,17.73
2019-05-21T10:06:33.084Z,24.57
2019-05-21T10:09:11.373Z,28.20
2019-05-21T10:11:47.582Z,25.83
2019-05-21T10:14:23.844Z,26.73
2019-05-21T10:17:00.107Z,27.13
2019-05-21T10:19:36.417Z,20.53
2019-05-21T10:22:12.700Z,23.90
2019-05-21T10:24:49.003Z,23.83
2019-05-21T10:27:25.279Z,19.03
2019-05-21T10:30:01.515Z,20.57
2019-05-21T10:32:37.783Z,20.63
2019-05-21T10:35:14.049Z,18.57
2019-05-21T10:37:54.889Z,19.80
2019-05-21T10:40:28.184Z,20.43
2019-05-21T10:43:04.383Z,19.37
2019-05-21T10:45:40.645Z,21.33
2019-05-21T10:48:16.920Z,20.13
2019-05-21T10:50:53.195Z,17.30
2019-05-21T10:53:29.411Z,18.27
2019-05-21T10:56:05.776Z,18.47
2019-05-21T10:58:42.082Z,19.87
2019-05-21T11:01:38.184Z,20.70
2019-05-21T11:04:33.817Z,20.17
2019-05-21T11:07:14.744Z,22.17
2019-05-21T11:09:54.235Z,23.03
2019-05-21T11:12:30.578Z,21.83
2019-05-21T11:15:09.628Z,23.70
2019-05-21T11:18:07.405Z,25.20
2019-05-21T11:20:29.547Z,21.37
2019-05-21T11:23:09.276Z,25.27
2019-05-21T11:25:48.699Z,19.17
2019-05-21T11:28:26.649Z,20.97
2019-05-21T11:31:03.139Z,21.90
2019-05-21T11:33:40.453Z,23.00
2019-05-21T11:36:16.796Z,21.13
2019-05-21T11:38:54.238Z,21.03
2019-05-21T11:41:33.565Z,22.77
2019-05-21T11:44:11.773Z,21.70
2019-05-21T11:46:50.988Z,24.77
2019-05-21T11:49:27.454Z,23.10
2019-05-21T11:52:04.193Z,28.27
2019-05-21T11:54:46.089Z,27.13
2019-05-21T11:57:25.247Z,28.33
2019-05-21T12:00:01.626Z,24.57
2019-05-21T12:02:38.050Z,26.07
2019-05-21T12:05:15.980Z,24.37
2019-05-21T12:07:54.922Z,20.90
2019-05-21T12:10:39.666Z,25.27
2019-05-21T12:13:10.985Z,26.23
2019-05-21T12:15:50.417Z,25.30
2019-05-21T12:18:36.936Z,24.60
2019-05-21T12:21:13.570Z,24.00
2019-05-21T12:23:52.022Z,24.87
2019-05-21T12:26:41.906Z,21.57
2019-05-21T12:29:26.299Z,21.83
2019-05-21T12:32:10.663Z,19.60
2019-05-21T12:34:46.416Z,20.43
2019-05-21T12:37:25.994Z,19.07
2019-05-21T12:40:06.716Z,21.37
2019-05-21T12:42:46.239Z,21.07
2019-05-21T12:45:25.278Z,19.90
2019-05-21T12:48:06.388Z,22.53
2019-05-21T12:50:47.160Z,19.07
2019-05-21T12:53:26.174Z,18.33
2019-05-21T12:56:04.101Z,18.77
2019-05-21T12:58:43.763Z,19.30
2019-05-21T13:01:22.990Z,19.37
2019-05-21T13:04:04.325Z,19.63
2019-05-21T13:06:41.927Z,17.93
2019-05-21T13:09:32.220Z,16.07
2019-05-21T13:11:56.806Z,18.73
2019-05-21T13:14:33.907Z,20.70
2019-05-21T13:17:10.764Z,19.37
2019-05-21T13:19:49.870Z,18.70
2019-05-21T13:22:27.706Z,18.30
2019-05-21T13:25:07.051Z,20.40
2019-05-21T13:27:46.043Z,21.70
2019-05-21T13:30:31.414Z,23.23
2019-05-21T13:33:13.945Z,20.97
2019-05-21T13:35:54.763Z,22.00
2019-05-21T13:38:31.171Z,21.23
2019-05-21T13:41:11.619Z,21.73
2019-05-21T13:43:50.301Z,19.53
2019-05-21T13:46:29.483Z,21.20
2019-05-21T13:49:08.851Z,21.30
2019-05-21T13:51:45.275Z,20.97
2019-05-21T13:54:21.512Z,18.00
2019-05-21T13:56:59.619Z,21.57
2019-05-21T13:59:44.821Z,18.97
2019-05-21T14:02:30.383Z,19.10
2019-05-21T14:05:08.294Z,19.17
2019-05-21T14:07:47.695Z,19.43
2019-05-21T14:10:28.431Z,18.80
2019-05-21T14:13:06.478Z,18.33
2019-05-21T14:15:45.443Z,18.33
2019-05-21T14:18:26.014Z,17.73
2019-05-21T14:21:05.832Z,19.10
2019-05-21T14:23:42.354Z,18.50
2019-05-21T14:26:18.708Z,17.67
2019-05-21T14:28:57.854Z,22.10
2019-05-21T14:31:36.673Z,20.63
2019-05-21T14:34:18.824Z,20.20
2019-05-21T14:36:55.569Z,18.47
2019-05-21T14:39:31.826Z,19.10
2019-05-21T14:42:27.761Z,19.17
2019-05-21T14:45:06.985Z,19.47
2019-05-21T14:47:45.950Z,18.57
2019-05-21T14:50:25.119Z,17.93
2019-05-21T14:53:06.674Z,20.13
2019-05-21T14:55:46.370Z,16.83
2019-05-21T14:58:24.573Z,16.50
2019-05-21T15:01:01.549Z,16.33
2019-05-21T15:03:38.072Z,16.63
2019-05-21T15:06:14.533Z,16.37
2019-05-21T15:08:52.020Z,14.80
2019-05-21T15:11:28.445Z,15.57
2019-05-21T15:14:07.927Z,16.50
2019-05-21T15:16:48.078Z,19.40
2019-05-21T15:19:26.063Z,16.67
2019-05-21T15:22:11.773Z,17.63
2019-05-21T15:24:51.378Z,17.00
2019-05-21T15:27:27.770Z,17.90
2019-05-21T15:30:06.148Z,29.57
2019-05-21T15:32:42.753Z,26.30
2019-05-21T15:35:21.785Z,16.27
2019-05-21T15:38:04.552Z,30.83
2019-05-21T15:40:44.020Z,21.83
2019-05-21T15:43:24.635Z,19.13
2019-05-21T15:46:02.617Z,12.37
2019-05-21T15:48:40.133Z,11.53
2019-05-21T15:51:18.079Z,11.90
2019-05-21T15:53:56.265Z,11.13
2019-05-21T15:56:34.363Z,14.13
2019-05-21T15:59:15.538Z,12.60
2019-05-21T16:01:52.090Z,12.23
2019-05-21T16:04:31.371Z,9.57
2019-05-21T16:07:07.858Z,10.20
2019-05-21T16:09:46.036Z,10.00
2019-05-21T16:12:22.337Z,8.27
2019-05-21T16:15:00.179Z,8.93
2019-05-21T16:17:38.058Z,8.40
2019-05-21T16:20:17.858Z,8.23
2019-05-21T16:22:59.024Z,9.37
2019-05-21T16:25:39.651Z,8.17
2019-05-21T16:28:16.078Z,11.30
2019-05-21T16:30:52.617Z,9.90
2019-05-21T16:33:31.872Z,10.90
2019-05-21T16:36:11.566Z,13.23
2019-05-21T16:38:51.151Z,12.73
2019-05-21T16:41:41.893Z,13.97
2019-05-21T16:44:09.334Z,14.33
2019-05-21T16:46:45.712Z,15.20
2019-05-21T16:49:22.279Z,13.87
2019-05-21T16:52:00.712Z,17.13
2019-05-21T16:54:36.966Z,18.33
2019-05-21T16:57:20.475Z,20.37
2019-05-21T16:59:56.983Z,20.50
2019-05-21T17:02:33.607Z,24.70
2019-05-21T17:05:11.824Z,24.27
2019-05-21T17:07:52.717Z,25.57
2019-05-21T17:10:30.651Z,26.13
2019-05-21T17:13:06.984Z,28.63
2019-05-21T17:15:43.373Z,29.67
2019-05-21T17:18:19.655Z,30.53
2019-05-21T17:20:56.027Z,30.33
2019-05-21T17:23:33.576Z,29.13
2019-05-21T17:26:15.974Z,26.57
2019-05-21T17:28:52.142Z,30.67
2019-05-21T17:31:28.575Z,28.83
2019-05-21T17:34:05.011Z,29.80
2019-05-21T17:36:42.927Z,30.00
2019-05-21T17:39:20.925Z,31.37
2019-05-21T17:41:57.381Z,31.70
2019-05-21T17:44:33.830Z,31.77
2019-05-21T17:47:10.284Z,31.17
2019-05-21T17:49:46.449Z,31.03
2019-05-21T17:52:22.810Z,32.40
2019-05-21T17:54:59.493Z,33.27
2019-05-21T17:57:37.858Z,31.83
2019-05-21T18:00:16.536Z,34.00
2019-05-21T18:02:56.195Z,34.00
2019-05-21T18:05:35.257Z,33.63
2019-05-21T18:08:16.556Z,34.67
2019-05-21T18:10:51.575Z,34.23
2019-05-21T18:13:28.304Z,36.07
2019-05-21T18:16:06.333Z,32.70
2019-05-21T18:18:42.931Z,37.50
2019-05-21T18:21:20.995Z,36.63
2019-05-21T18:24:00.410Z,35.77
2019-05-21T18:26:37.264Z,34.03
2019-05-21T18:29:13.845Z,36.23
2019-05-21T18:31:51.993Z,38.00
2019-05-21T18:34:29.966Z,39.73
2019-05-21T18:37:06.199Z,37.57
2019-05-21T18:39:42.424Z,37.37
2019-05-21T18:42:22.460Z,38.73
2019-05-21T18:44:58.952Z,37.03
2019-05-21T18:47:35.300Z,39.23
2019-05-21T18:50:12.970Z,38.60
2019-05-21T18:52:53.777Z,37.43
2019-05-21T18:55:31.497Z,38.30
2019-05-21T18:58:09.261Z,38.57
2019-05-21T19:00:45.564Z,37.57
2019-05-21T19:03:25.639Z,40.17
2019-05-21T19:06:01.331Z,38.87
2019-05-21T19:08:37.730Z,38.90
2019-05-21T19:11:14.140Z,39.13
2019-05-21T19:13:50.822Z,39.57
2019-05-21T19:16:30.155Z,39.90
2019-05-21T19:19:06.705Z,40.77
2019-05-21T19:21:43.003Z,41.00
2019-05-21T19:24:19.553Z,41.00
2019-05-21T19:26:57.124Z,40.20
2019-05-21T19:29:35.074Z,42.23
2019-05-21T19:32:16.930Z,42.17
2019-05-21T19:34:55.226Z,43.27
2019-05-21T19:37:37.896Z,41.40
2019-05-21T19:40:13.196Z,45.17
2019-05-21T19:42:54.969Z,44.73
2019-05-21T19:45:27.621Z,43.87
2019-05-21T19:48:07.575Z,44.43
2019-05-21T19:50:45.045Z,45.87
2019-05-21T19:53:21.520Z,47.20
2019-05-21T19:55:58.152Z,45.77
2019-05-21T19:58:36.342Z,42.90
2019-05-21T20:01:17.183Z,43.63
2019-05-21T20:03:53.628Z,44.87
2019-05-21T20:06:32.483Z,42.10
2019-05-21T20:09:09.723Z,41.03
2019-05-21T20:11:47.721Z,44.63
2019-05-21T20:14:24.288Z,42.77
2019-05-21T20:17:02.489Z,39.27
2019-05-21T20:19:39.716Z,38.77
2019-05-21T20:22:16.973Z,40.70
2019-05-21T20:24:55.343Z,41.80
2019-05-21T20:27:31.832Z,36.97
2019-05-21T20:30:13.150Z,31.73
2019-05-21T20:32:50.129Z,33.07
2019-05-21T20:35:30.548Z,37.00
2019-05-21T20:38:07.833Z,40.73
2019-05-21T20:40:45.454Z,39.17
2019-05-21T20:43:22.106Z,41.30
2019-05-21T20:45:59.577Z,40.43
2019-05-21T20:48:37.523Z,38.53
2019-05-21T20:51:15.312Z,36.87
2019-05-21T20:53:51.599Z,40.43
2019-05-21T20:56:28.631Z,40.17
2019-05-21T20:59:05.586Z,39.07
2019-05-21T21:01:44.425Z,36.30
2019-05-21T21:04:21.172Z,37.50
2019-05-21T21:06:58.910Z,39.27
2019-05-21T21:09:35.551Z,37.23
2019-05-21T21:12:12.663Z,39.93
2019-05-21T21:14:49.921Z,39.60
2019-05-21T21:17:26.361Z,39.60
2019-05-21T21:20:02.790Z,40.37
2019-05-21T21:22:40.317Z,40.57
2019-05-21T21:25:21.309Z,41.07
2019-05-21T21:27:59.833Z,41.80
2019-05-21T21:30:36.584Z,42.33
2019-05-21T21:33:13.684Z,42.87
2019-05-21T21:35:50.444Z,42.60
2019-05-21T21:38:28.174Z,43.83
2019-05-21T21:41:05.210Z,43.80
2019-05-21T21:43:42.060Z,43.37
2019-05-21T21:46:18.590Z,43.53
2019-05-21T21:48:55.477Z,44.37
2019-05-21T21:51:32.406Z,43.63
2019-05-21T21:54:08.635Z,45.80
2019-05-21T21:56:44.969Z,46.03
2019-05-21T21:59:23.145Z,44.37
2019-05-21T22:02:05.503Z,45.73
2019-05-21T22:04:41.960Z,47.10
2019-05-21T22:07:18.328Z,50.77
2019-05-21T22:09:54.745Z,48.63
2019-05-21T22:12:32.881Z,45.70
2019-05-21T22:15:11.489Z,40.63
2019-05-21T22:17:47.888Z,50.63
2019-05-21T22:20:24.130Z,49.70
2019-05-21T22:23:00.701Z,45.80
2019-05-21T22:25:37.200Z,46.73
2019-05-21T22:28:14.252Z,48.03
2019-05-21T22:30:50.633Z,44.50
2019-05-21T22:33:27.139Z,49.93
2019-05-21T22:36:03.473Z,52.90
2019-05-21T22:38:42.716Z,49.03
2019-05-21T22:41:19.457Z,47.80
2019-05-21T22:43:55.892Z,49.07
2019-05-21T22:46:32.588Z,50.17
2019-05-21T22:49:09.002Z,48.63
2019-05-21T22:51:45.387Z,48.33
2019-05-21T22:54:24.509Z,53.83
2019-05-21T22:57:01.235Z,48.47
2019-05-21T22:59:37.588Z,52.63
2019-05-21T23:02:15.526Z,52.10
2019-05-21T23:04:52.162Z,50.60
2019-05-21T23:07:28.637Z,49.13
2019-05-21T23:10:10.758Z,44.73
2019-05-21T23:12:47.086Z,47.27
2019-05-21T23:15:25.234Z,49.77
2019-05-21T23:18:01.752Z,49.93
2019-05-21T23:20:38.602Z,52.20
2019-05-21T23:23:15.097Z,62.27
2019-05-21T23:25:54.468Z,49.00
2019-05-21T23:28:31.011Z,48.33
2019-05-21T23:31:11.243Z,49.17
2019-05-21T23:33:48.876Z,48.57
2019-05-21T23:36:25.092Z,49.50
2019-05-21T23:39:03.272Z,49.27
2019-05-21T23:41:41.655Z,50.40
2019-05-21T23:44:18.438Z,48.73
2019-05-21T23:46:55.251Z,47.93
2019-05-21T23:49:31.660Z,46.17
2019-05-21T23:52:07.923Z,45.40
2019-05-21T23:54:44.309Z,50.87
2019-05-21T23:57:23.383Z,48.93
2019-05-21T23:59:59.668Z,47.67
